sensor_id;sensor_type;location;lat;lon;timestamp;pressure;altitude;pressure_sealevel;temperature;humidity
39443;BME280;25147;52.142;9.960;2023-10-19T00:02:06;99004.19;;;6.68;100.00
39443;BME280;25147;52.142;9.960;2023-10-19T00:04:32;99001.44;;;6.76;100.00
39443;BME280;25147;52.142;9.960;2023-10-19T00:07:01;98882.50;;;6.09;100.00
39443;BME280;25147;52.142;9.960;2023-10-19T00:09:26;98900.47;;;6.18;100.00
39443;BME280;25147;52.142;9.960;2023-10-19T00:12:01;98948.31;;;6.47;100.00
39443;BME280;25147;52.142;9.960;2023-10-19T00:14:30;98797.41;;;5.42;100.00
39443;BME280;25147;52.142;9.960;2023-10-19T00:16:58;99018.69;;;6.78;100.00
39443;BME280;25147;52.142;9.960;2023-10-19T00:19:28;98989.47;;;6.67;100.00
39443;BME280;25147;52.142;9.960;2023-10-19T00:21:59;98978.56;;;6.51;100.00
39443;BME280;25147;52.142;9.960;2023-10-19T00:24:36;98872.25;;;6.03;100.00
39443;BME280;25147;52.142;9.960;2023-10-19T00:27:07;98894.94;;;5.96;100.00
39443;BME280;25147;52.142;9.960;2023-10-19T00:29:43;98750.25;;;5.22;100.00
39443;BME280;25147;52.142;9.960;2023-10-19T00:32:16;99011.94;;;7.07;100.00
39443;BME280;25147;52.142;9.960;2023-10-19T00:34:47;99043.88;;;7.12;100.00
39443;BME280;25147;52.142;9.960;2023-10-19T00:37:19;98759.31;;;5.43;100.00
39443;BME280;25147;52.142;9.960;2023-10-19T00:39:54;98731.00;;;5.34;100.00
39443;BME280;25147;52.142;9.960;2023-10-19T00:42:40;98968.63;;;6.69;100.00
39443;BME280;25147;52.142;9.960;2023-10-19T00:45:16;98906.72;;;6.47;100.00
39443;BME280;25147;52.142;9.960;2023-10-19T00:47:50;98696.16;;;5.05;100.00
39443;BME280;25147;52.142;9.960;2023-10-19T00:50:25;98756.00;;;5.36;100.00
39443;BME280;25147;52.142;9.960;2023-10-19T00:52:59;98725.19;;;5.21;100.00
39443;BME280;25147;52.142;9.960;2023-10-19T00:55:27;99028.34;;;7.11;100.00
39443;BME280;25147;52.142;9.960;2023-10-19T00:58:00;98898.41;;;6.33;100.00
39443;BME280;25147;52.142;9.960;2023-10-19T01:00:36;98767.34;;;5.70;100.00
39443;BME280;25147;52.142;9.960;2023-10-19T01:03:13;98718.72;;;5.40;100.00
39443;BME280;25147;52.142;9.960;2023-10-19T01:05:45;98732.50;;;5.42;100.00
39443;BME280;25147;52.142;9.960;2023-10-19T01:08:15;98877.47;;;6.39;100.00
39443;BME280;25147;52.142;9.960;2023-10-19T01:10:50;98950.91;;;6.85;100.00
39443;BME280;25147;52.142;9.960;2023-10-19T01:13:19;98874.03;;;6.38;100.00
39443;BME280;25147;52.142;9.960;2023-10-19T01:15:53;98860.03;;;6.44;100.00
39443;BME280;25147;52.142;9.960;2023-10-19T01:18:21;98727.03;;;5.55;100.00
39443;BME280;25147;52.142;9.960;2023-10-19T01:20:49;98909.06;;;6.59;100.00
39443;BME280;25147;52.142;9.960;2023-10-19T01:23:18;98833.56;;;6.28;100.00
39443;BME280;25147;52.142;9.960;2023-10-19T01:25:52;98817.31;;;6.18;100.00
39443;BME280;25147;52.142;9.960;2023-10-19T01:28:28;98976.44;;;7.05;100.00
39443;BME280;25147;52.142;9.960;2023-10-19T01:31:10;98961.69;;;7.05;100.00
39443;BME280;25147;52.142;9.960;2023-10-19T01:33:41;98953.84;;;7.07;100.00
39443;BME280;25147;52.142;9.960;2023-10-19T01:36:09;98933.44;;;6.90;100.00
39443;BME280;25147;52.142;9.960;2023-10-19T01:38:41;98928.47;;;6.80;100.00
39443;BME280;25147;52.142;9.960;2023-10-19T01:41:09;98945.28;;;7.01;100.00
39443;BME280;25147;52.142;9.960;2023-10-19T01:43:43;98941.84;;;7.01;100.00
39443;BME280;25147;52.142;9.960;2023-10-19T01:46:19;98916.75;;;6.98;100.00
39443;BME280;25147;52.142;9.960;2023-10-19T01:48:51;98921.16;;;6.96;100.00
39443;BME280;25147;52.142;9.960;2023-10-19T01:51:21;98806.63;;;6.31;100.00
39443;BME280;25147;52.142;9.960;2023-10-19T01:53:52;98849.16;;;6.62;100.00
39443;BME280;25147;52.142;9.960;2023-10-19T01:56:18;98906.41;;;6.95;100.00
39443;BME280;25147;52.142;9.960;2023-10-19T01:58:47;98905.56;;;6.95;100.00
39443;BME280;25147;52.142;9.960;2023-10-19T02:01:14;98821.03;;;6.44;100.00
39443;BME280;25147;52.142;9.960;2023-10-19T02:03:46;98885.69;;;6.92;100.00
39443;BME280;25147;52.142;9.960;2023-10-19T02:06:13;98885.59;;;6.95;100.00
39443;BME280;25147;52.142;9.960;2023-10-19T02:08:49;98865.09;;;6.83;100.00
39443;BME280;25147;52.142;9.960;2023-10-19T02:11:19;98813.88;;;6.54;100.00
39443;BME280;25147;52.142;9.960;2023-10-19T02:13:48;98726.78;;;6.03;100.00
39443;BME280;25147;52.142;9.960;2023-10-19T02:16:15;98692.38;;;5.93;100.00
39443;BME280;25147;52.142;9.960;2023-10-19T02:18:44;98872.47;;;7.00;100.00
39443;BME280;25147;52.142;9.960;2023-10-19T02:21:10;98761.28;;;6.42;100.00
39443;BME280;25147;52.142;9.960;2023-10-19T02:23:39;98864.41;;;7.09;100.00
39443;BME280;25147;52.142;9.960;2023-10-19T02:26:05;98860.06;;;7.10;100.00
39443;BME280;25147;52.142;9.960;2023-10-19T02:28:34;98847.16;;;7.07;100.00
39443;BME280;25147;52.142;9.960;2023-10-19T02:31:05;98855.63;;;7.13;100.00
39443;BME280;25147;52.142;9.960;2023-10-19T02:33:42;98831.00;;;6.94;100.00
39443;BME280;25147;52.142;9.960;2023-10-19T02:36:11;98867.88;;;7.10;100.00
39443;BME280;25147;52.142;9.960;2023-10-19T02:38:40;98851.38;;;7.11;100.00
39443;BME280;25147;52.142;9.960;2023-10-19T02:41:10;98839.22;;;7.11;100.00
39443;BME280;25147;52.142;9.960;2023-10-19T02:43:38;98822.75;;;7.11;100.00
39443;BME280;25147;52.142;9.960;2023-10-19T02:46:07;98830.56;;;7.11;100.00
39443;BME280;25147;52.142;9.960;2023-10-19T02:48:36;98827.16;;;7.09;100.00
39443;BME280;25147;52.142;9.960;2023-10-19T02:51:02;98775.53;;;6.62;100.00
39443;BME280;25147;52.142;9.960;2023-10-19T02:53:37;98828.28;;;6.98;100.00
39443;BME280;25147;52.142;9.960;2023-10-19T02:56:12;98822.09;;;7.02;100.00
39443;BME280;25147;52.142;9.960;2023-10-19T02:58:44;98819.44;;;7.04;100.00
39443;BME280;25147;52.142;9.960;2023-10-19T03:01:16;98822.97;;;7.03;100.00
39443;BME280;25147;52.142;9.960;2023-10-19T03:03:48;98814.31;;;7.02;100.00
39443;BME280;25147;52.142;9.960;2023-10-19T03:06:18;98780.28;;;6.77;100.00
39443;BME280;25147;52.142;9.960;2023-10-19T03:08:47;98811.72;;;7.02;100.00
39443;BME280;25147;52.142;9.960;2023-10-19T03:11:13;98804.06;;;6.96;100.00
39443;BME280;25147;52.142;9.960;2023-10-19T03:13:42;98712.75;;;6.43;100.00
39443;BME280;25147;52.142;9.960;2023-10-19T03:16:09;98807.59;;;6.94;100.00
39443;BME280;25147;52.142;9.960;2023-10-19T03:18:35;98810.00;;;7.00;100.00
39443;BME280;25147;52.142;9.960;2023-10-19T03:21:01;98525.69;;;5.12;100.00
39443;BME280;25147;52.142;9.960;2023-10-19T03:23:27;98805.72;;;6.99;100.00
39443;BME280;25147;52.142;9.960;2023-10-19T03:25:55;98543.97;;;5.41;100.00
39443;BME280;25147;52.142;9.960;2023-10-19T03:28:36;98685.94;;;6.08;100.00
39443;BME280;25147;52.142;9.960;2023-10-19T03:31:06;98685.13;;;6.39;100.00
39443;BME280;25147;52.142;9.960;2023-10-19T03:33:34;98758.56;;;6.80;100.00
39443;BME280;25147;52.142;9.960;2023-10-19T03:36:02;98791.72;;;7.03;100.00
39443;BME280;25147;52.142;9.960;2023-10-19T03:38:30;98716.72;;;6.56;100.00
39443;BME280;25147;52.142;9.960;2023-10-19T03:41:02;98692.00;;;6.41;100.00
39443;BME280;25147;52.142;9.960;2023-10-19T03:43:32;98776.19;;;7.00;100.00
39443;BME280;25147;52.142;9.960;2023-10-19T03:46:03;98714.81;;;6.63;100.00
39443;BME280;25147;52.142;9.960;2023-10-19T03:48:40;98604.75;;;6.01;100.00
39443;BME280;25147;52.142;9.960;2023-10-19T03:51:07;98498.00;;;5.47;100.00
39443;BME280;25147;52.142;9.960;2023-10-19T03:53:37;98785.59;;;7.06;100.00
39443;BME280;25147;52.142;9.960;2023-10-19T03:56:05;98761.28;;;7.07;100.00
39443;BME280;25147;52.142;9.960;2023-10-19T03:58:36;98582.47;;;5.91;100.00
39443;BME280;25147;52.142;9.960;2023-10-19T04:01:05;98674.47;;;6.50;100.00
39443;BME280;25147;52.142;9.960;2023-10-19T04:03:32;98573.75;;;5.94;100.00
39443;BME280;25147;52.142;9.960;2023-10-19T04:06:03;98618.81;;;6.26;100.00
39443;BME280;25147;52.142;9.960;2023-10-19T04:08:31;98580.69;;;5.95;100.00
39443;BME280;25147;52.142;9.960;2023-10-19T04:11:03;98644.88;;;6.22;100.00
39443;BME280;25147;52.142;9.960;2023-10-19T04:13:37;98650.50;;;6.38;100.00
39443;BME280;25147;52.142;9.960;2023-10-19T04:16:06;98646.25;;;6.36;100.00
39443;BME280;25147;52.142;9.960;2023-10-19T04:18:35;98768.34;;;7.01;100.00
39443;BME280;25147;52.142;9.960;2023-10-19T04:21:08;98726.81;;;6.98;100.00
39443;BME280;25147;52.142;9.960;2023-10-19T04:23:35;98645.09;;;6.46;100.00
39443;BME280;25147;52.142;9.960;2023-10-19T04:26:02;98722.50;;;6.97;100.00
39443;BME280;25147;52.142;9.960;2023-10-19T04:28:37;98731.78;;;7.06;100.00
39443;BME280;25147;52.142;9.960;2023-10-19T04:31:16;98557.31;;;5.93;100.00
39443;BME280;25147;52.142;9.960;2023-10-19T04:33:45;98500.91;;;5.67;100.00
39443;BME280;25147;52.142;9.960;2023-10-19T04:36:16;98477.19;;;5.48;100.00
39443;BME280;25147;52.142;9.960;2023-10-19T04:38:46;98641.75;;;6.41;100.00
39443;BME280;25147;52.142;9.960;2023-10-19T04:41:13;98634.66;;;6.48;100.00
39443;BME280;25147;52.142;9.960;2023-10-19T04:43:40;98533.13;;;5.91;100.00
39443;BME280;25147;52.142;9.960;2023-10-19T04:46:10;98664.38;;;6.69;100.00
39443;BME280;25147;52.142;9.960;2023-10-19T04:48:40;98718.94;;;7.00;100.00
39443;BME280;25147;52.142;9.960;2023-10-19T04:51:07;98709.44;;;7.00;100.00
39443;BME280;25147;52.142;9.960;2023-10-19T04:53:35;98683.81;;;6.87;100.00
39443;BME280;25147;52.142;9.960;2023-10-19T04:56:03;98663.41;;;6.73;100.00
39443;BME280;25147;52.142;9.960;2023-10-19T04:58:30;98648.91;;;6.64;100.00
39443;BME280;25147;52.142;9.960;2023-10-19T05:00:57;98658.16;;;6.74;100.00
39443;BME280;25147;52.142;9.960;2023-10-19T05:03:25;98691.91;;;7.06;100.00
39443;BME280;25147;52.142;9.960;2023-10-19T05:05:53;98573.47;;;6.36;100.00
39443;BME280;25147;52.142;9.960;2023-10-19T05:08:22;98681.50;;;7.06;100.00
39443;BME280;25147;52.142;9.960;2023-10-19T05:10:51;98684.25;;;7.01;100.00
39443;BME280;25147;52.142;9.960;2023-10-19T05:13:19;98684.91;;;7.08;100.00
39443;BME280;25147;52.142;9.960;2023-10-19T05:15:46;98674.66;;;7.03;100.00
39443;BME280;25147;52.142;9.960;2023-10-19T05:18:13;98673.56;;;7.10;100.00
39443;BME280;25147;52.142;9.960;2023-10-19T05:20:40;98494.84;;;5.99;100.00
39443;BME280;25147;52.142;9.960;2023-10-19T05:23:08;98487.22;;;5.92;100.00
39443;BME280;25147;52.142;9.960;2023-10-19T05:25:35;98679.63;;;7.11;100.00
39443;BME280;25147;52.142;9.960;2023-10-19T05:28:04;98491.44;;;5.97;100.00
39443;BME280;25147;52.142;9.960;2023-10-19T05:30:31;98680.44;;;7.13;100.00
39443;BME280;25147;52.142;9.960;2023-10-19T05:32:58;98674.50;;;7.08;100.00
39443;BME280;25147;52.142;9.960;2023-10-19T05:35:28;98628.56;;;6.78;100.00
39443;BME280;25147;52.142;9.960;2023-10-19T05:37:55;98672.72;;;7.10;100.00
39443;BME280;25147;52.142;9.960;2023-10-19T05:40:24;98650.66;;;6.93;100.00
39443;BME280;25147;52.142;9.960;2023-10-19T05:42:56;98590.47;;;6.48;100.00
39443;BME280;25147;52.142;9.960;2023-10-19T05:45:23;98698.47;;;7.19;100.00
39443;BME280;25147;52.142;9.960;2023-10-19T05:47:50;98610.53;;;6.72;100.00
39443;BME280;25147;52.142;9.960;2023-10-19T05:50:17;98696.75;;;7.18;100.00
39443;BME280;25147;52.142;9.960;2023-10-19T05:52:43;98696.78;;;7.16;100.00
39443;BME280;25147;52.142;9.960;2023-10-19T05:55:10;98695.06;;;7.17;100.00
39443;BME280;25147;52.142;9.960;2023-10-19T05:57:39;98698.47;;;7.19;100.00
39443;BME280;25147;52.142;9.960;2023-10-19T06:00:07;98696.72;;;7.19;100.00
39443;BME280;25147;52.142;9.960;2023-10-19T06:02:39;98673.81;;;7.02;100.00
39443;BME280;25147;52.142;9.960;2023-10-19T06:05:06;98682.31;;;7.08;100.00
39443;BME280;25147;52.142;9.960;2023-10-19T06:07:33;98707.03;;;7.22;100.00
39443;BME280;25147;52.142;9.960;2023-10-19T06:09:59;98574.97;;;6.43;100.00
39443;BME280;25147;52.142;9.960;2023-10-19T06:12:30;98713.06;;;7.25;100.00
39443;BME280;25147;52.142;9.960;2023-10-19T06:14:58;98707.09;;;7.21;100.00
39443;BME280;25147;52.142;9.960;2023-10-19T06:17:25;98703.44;;;7.27;100.00
39443;BME280;25147;52.142;9.960;2023-10-19T06:19:54;98706.84;;;7.29;100.00
39443;BME280;25147;52.142;9.960;2023-10-19T06:22:21;98708.53;;;7.30;100.00
39443;BME280;25147;52.142;9.960;2023-10-19T06:24:47;98716.28;;;7.33;100.00
39443;BME280;25147;52.142;9.960;2023-10-19T06:27:14;98716.19;;;7.34;100.00
39443;BME280;25147;52.142;9.960;2023-10-19T06:29:41;98705.06;;;7.31;100.00
39443;BME280;25147;52.142;9.960;2023-10-19T06:32:10;98715.22;;;7.38;100.00
39443;BME280;25147;52.142;9.960;2023-10-19T06:34:39;98668.16;;;7.16;100.00
39443;BME280;25147;52.142;9.960;2023-10-19T06:37:06;98699.56;;;7.40;100.00
39443;BME280;25147;52.142;9.960;2023-10-19T06:39:36;98701.28;;;7.41;100.00
39443;BME280;25147;52.142;9.960;2023-10-19T06:42:07;98701.19;;;7.42;100.00
39443;BME280;25147;52.142;9.960;2023-10-19T06:44:40;98574.22;;;6.69;100.00
39443;BME280;25147;52.142;9.960;2023-10-19T06:47:08;98700.34;;;7.42;100.00
39443;BME280;25147;52.142;9.960;2023-10-19T06:49:37;98700.31;;;7.43;100.00
39443;BME280;25147;52.142;9.960;2023-10-19T06:52:03;98672.25;;;7.25;100.00
39443;BME280;25147;52.142;9.960;2023-10-19T06:54:31;98615.94;;;6.94;100.00
39443;BME280;25147;52.142;9.960;2023-10-19T06:56:58;98693.47;;;7.41;100.00
39443;BME280;25147;52.142;9.960;2023-10-19T06:59:28;98687.69;;;7.31;100.00
39443;BME280;25147;52.142;9.960;2023-10-19T07:01:58;98695.09;;;7.43;100.00
39443;BME280;25147;52.142;9.960;2023-10-19T07:04:26;98700.28;;;7.45;100.00
39443;BME280;25147;52.142;9.960;2023-10-19T07:06:54;98642.44;;;7.07;100.00
39443;BME280;25147;52.142;9.960;2023-10-19T07:09:21;98643.75;;;7.20;100.00
39443;BME280;25147;52.142;9.960;2023-10-19T07:11:48;98648.94;;;7.20;100.00
39443;BME280;25147;52.142;9.960;2023-10-19T07:14:18;98684.31;;;7.56;100.00
39443;BME280;25147;52.142;9.960;2023-10-19T07:16:48;98647.03;;;7.27;100.00
39443;BME280;25147;52.142;9.960;2023-10-19T07:19:15;98688.47;;;7.61;100.00
39443;BME280;25147;52.142;9.960;2023-10-19T07:21:42;98710.94;;;7.64;100.00
39443;BME280;25147;52.142;9.960;2023-10-19T07:24:16;98695.22;;;7.67;100.00
39443;BME280;25147;52.142;9.960;2023-10-19T07:26:44;98569.34;;;6.87;100.00
39443;BME280;25147;52.142;9.960;2023-10-19T07:29:27;98499.34;;;6.52;100.00
39443;BME280;25147;52.142;9.960;2023-10-19T07:31:54;98700.38;;;7.69;100.00
39443;BME280;25147;52.142;9.960;2023-10-19T07:34:23;98400.59;;;5.94;100.00
39443;BME280;25147;52.142;9.960;2023-10-19T07:36:54;98418.78;;;5.94;100.00
39443;BME280;25147;52.142;9.960;2023-10-19T07:39:22;98639.19;;;7.29;100.00
39443;BME280;25147;52.142;9.960;2023-10-19T07:41:49;98545.16;;;6.85;100.00
39443;BME280;25147;52.142;9.960;2023-10-19T07:44:16;98676.09;;;7.68;100.00
39443;BME280;25147;52.142;9.960;2023-10-19T07:46:43;98687.28;;;7.72;100.00
39443;BME280;25147;52.142;9.960;2023-10-19T07:49:10;98692.28;;;7.78;100.00
39443;BME280;25147;52.142;9.960;2023-10-19T07:51:44;98682.38;;;7.61;100.00
39443;BME280;25147;52.142;9.960;2023-10-19T07:54:12;98374.53;;;5.99;100.00
39443;BME280;25147;52.142;9.960;2023-10-19T07:56:40;98680.25;;;7.74;100.00
39443;BME280;25147;52.142;9.960;2023-10-19T07:59:07;98684.16;;;7.87;100.00
39443;BME280;25147;52.142;9.960;2023-10-19T08:01:34;98553.13;;;7.07;100.00
39443;BME280;25147;52.142;9.960;2023-10-19T08:04:02;98677.25;;;7.86;100.00
39443;BME280;25147;52.142;9.960;2023-10-19T08:06:28;98542.56;;;7.11;100.00
39443;BME280;25147;52.142;9.960;2023-10-19T08:08:58;98525.31;;;7.09;100.00
39443;BME280;25147;52.142;9.960;2023-10-19T08:11:26;98500.78;;;6.89;100.00
39443;BME280;25147;52.142;9.960;2023-10-19T08:13:54;98566.97;;;7.34;100.00
39443;BME280;25147;52.142;9.960;2023-10-19T08:16:21;98425.22;;;6.39;100.00
39443;BME280;25147;52.142;9.960;2023-10-19T08:18:49;98650.66;;;7.76;100.00
39443;BME280;25147;52.142;9.960;2023-10-19T08:21:18;98513.69;;;6.92;100.00
39443;BME280;25147;52.142;9.960;2023-10-19T08:23:45;98521.03;;;7.06;100.00
39443;BME280;25147;52.142;9.960;2023-10-19T08:26:14;98505.56;;;7.01;100.00
39443;BME280;25147;52.142;9.960;2023-10-19T08:28:41;98419.16;;;6.40;100.00
39443;BME280;25147;52.142;9.960;2023-10-19T08:31:10;98414.44;;;6.51;100.00
39443;BME280;25147;52.142;9.960;2023-10-19T08:33:37;98557.28;;;7.39;100.00
39443;BME280;25147;52.142;9.960;2023-10-19T08:36:16;98524.34;;;7.11;100.00
39443;BME280;25147;52.142;9.960;2023-10-19T08:38:45;98417.94;;;6.50;100.00
39443;BME280;25147;52.142;9.960;2023-10-19T08:41:12;98385.19;;;6.45;100.00
39443;BME280;25147;52.142;9.960;2023-10-19T08:43:41;98678.22;;;8.09;100.00
39443;BME280;25147;52.142;9.960;2023-10-19T08:46:09;98510.03;;;6.98;100.00
39443;BME280;25147;52.142;9.960;2023-10-19T08:48:37;98420.13;;;6.64;100.00
39443;BME280;25147;52.142;9.960;2023-10-19T08:51:09;98693.91;;;8.32;100.00
39443;BME280;25147;52.142;9.960;2023-10-19T08:53:37;98686.03;;;8.34;100.00
39443;BME280;25147;52.142;9.960;2023-10-19T08:56:06;98565.91;;;7.66;100.00
39443;BME280;25147;52.142;9.960;2023-10-19T08:58:34;98534.50;;;7.46;100.00
39443;BME280;25147;52.142;9.960;2023-10-19T09:01:01;98511.47;;;7.33;100.00
39443;BME280;25147;52.142;9.960;2023-10-19T09:03:36;98572.31;;;7.81;100.00
39443;BME280;25147;52.142;9.960;2023-10-19T09:06:05;98634.22;;;8.24;100.00
39443;BME280;25147;52.142;9.960;2023-10-19T09:08:32;98613.13;;;8.07;100.00
39443;BME280;25147;52.142;9.960;2023-10-19T09:11:09;98599.81;;;8.15;100.00
39443;BME280;25147;52.142;9.960;2023-10-19T09:13:44;98625.53;;;8.24;100.00
39443;BME280;25147;52.142;9.960;2023-10-19T09:16:14;98648.09;;;8.50;100.00
39443;BME280;25147;52.142;9.960;2023-10-19T09:18:42;98619.22;;;8.31;100.00
39443;BME280;25147;52.142;9.960;2023-10-19T09:21:10;98607.06;;;8.30;100.00
39443;BME280;25147;52.142;9.960;2023-10-19T09:23:38;98597.38;;;8.10;100.00
39443;BME280;25147;52.142;9.960;2023-10-19T09:26:05;98415.44;;;7.00;100.00
39443;BME280;25147;52.142;9.960;2023-10-19T09:28:34;98659.69;;;8.67;100.00
39443;BME280;25147;52.142;9.960;2023-10-19T09:31:02;98619.22;;;8.31;100.00
39443;BME280;25147;52.142;9.960;2023-10-19T09:33:31;98646.16;;;8.57;100.00
39443;BME280;25147;52.142;9.960;2023-10-19T09:36:01;98551.81;;;7.97;100.00
39443;BME280;25147;52.142;9.960;2023-10-19T09:38:30;98440.38;;;7.56;100.00
39443;BME280;25147;52.142;9.960;2023-10-19T09:40:58;98641.47;;;8.89;100.00
39443;BME280;25147;52.142;9.960;2023-10-19T09:43:33;98545.28;;;8.32;100.00
39443;BME280;25147;52.142;9.960;2023-10-19T09:46:05;98485.81;;;7.96;100.00
39443;BME280;25147;52.142;9.960;2023-10-19T09:48:39;98405.06;;;7.49;100.00
39443;BME280;25147;52.142;9.960;2023-10-19T09:51:09;98475.16;;;8.02;100.00
39443;BME280;25147;52.142;9.960;2023-10-19T09:53:38;98623.88;;;8.94;100.00
39443;BME280;25147;52.142;9.960;2023-10-19T09:56:07;98441.06;;;7.85;100.00
39443;BME280;25147;52.142;9.960;2023-10-19T09:58:40;98649.19;;;9.14;100.00
39443;BME280;25147;52.142;9.960;2023-10-19T10:01:10;98642.53;;;9.07;100.00
39443;BME280;25147;52.142;9.960;2023-10-19T10:03:43;98479.19;;;8.11;100.00
39443;BME280;25147;52.142;9.960;2023-10-19T10:06:12;98398.97;;;7.49;100.00
39443;BME280;25147;52.142;9.960;2023-10-19T10:08:42;98370.69;;;7.39;100.00
39443;BME280;25147;52.142;9.960;2023-10-19T10:11:20;98404.63;;;7.61;100.00
39443;BME280;25147;52.142;9.960;2023-10-19T10:13:49;98380.72;;;7.50;100.00
39443;BME280;25147;52.142;9.960;2023-10-19T10:16:21;98496.00;;;8.26;100.00
39443;BME280;25147;52.142;9.960;2023-10-19T10:18:50;98604.81;;;9.14;100.00
39443;BME280;25147;52.142;9.960;2023-10-19T10:21:20;98394.41;;;7.79;100.00
39443;BME280;25147;52.142;9.960;2023-10-19T10:23:49;98651.94;;;9.55;100.00
39443;BME280;25147;52.142;9.960;2023-10-19T10:26:17;98573.28;;;9.20;100.00
39443;BME280;25147;52.142;9.960;2023-10-19T10:28:49;98483.31;;;8.84;100.00
39443;BME280;25147;52.142;9.960;2023-10-19T10:31:35;98514.13;;;9.19;100.00
39443;BME280;25147;52.142;9.960;2023-10-19T10:34:08;98382.03;;;8.30;100.00
39443;BME280;25147;52.142;9.960;2023-10-19T10:36:58;98567.69;;;9.70;100.00
39443;BME280;25147;52.142;9.960;2023-10-19T10:39:26;98465.63;;;9.13;100.00
39443;BME280;25147;52.142;9.960;2023-10-19T10:41:56;98446.03;;;9.03;100.00
39443;BME280;25147;52.142;9.960;2023-10-19T10:44:37;98614.88;;;10.08;100.00
39443;BME280;25147;52.142;9.960;2023-10-19T10:47:06;98550.19;;;9.72;100.00
39443;BME280;25147;52.142;9.960;2023-10-19T10:49:46;98612.09;;;10.11;100.00
39443;BME280;25147;52.142;9.960;2023-10-19T10:52:27;98439.81;;;9.06;100.00
39443;BME280;25147;52.142;9.960;2023-10-19T10:55:07;98546.53;;;9.56;100.00
39443;BME280;25147;52.142;9.960;2023-10-19T10:57:37;98397.44;;;8.58;100.00
39443;BME280;25147;52.142;9.960;2023-10-19T11:00:05;98531.00;;;9.53;100.00
39443;BME280;25147;52.142;9.960;2023-10-19T11:02:37;98626.13;;;10.10;100.00
39443;BME280;25147;52.142;9.960;2023-10-19T11:05:11;98540.84;;;9.67;100.00
39443;BME280;25147;52.142;9.960;2023-10-19T11:07:40;98504.16;;;9.49;100.00
39443;BME280;25147;52.142;9.960;2023-10-19T11:10:07;98399.19;;;8.79;100.00
39443;BME280;25147;52.142;9.960;2023-10-19T11:12:37;98444.34;;;9.02;100.00
39443;BME280;25147;52.142;9.960;2023-10-19T11:15:05;98596.78;;;10.03;100.00
39443;BME280;25147;52.142;9.960;2023-10-19T11:17:42;98496.63;;;9.41;100.00
39443;BME280;25147;52.142;9.960;2023-10-19T11:20:21;98545.41;;;9.82;100.00
39443;BME280;25147;52.142;9.960;2023-10-19T11:22:50;98605.56;;;10.01;100.00
39443;BME280;25147;52.142;9.960;2023-10-19T11:25:19;98324.47;;;8.56;100.00
39443;BME280;25147;52.142;9.960;2023-10-19T11:27:54;98607.53;;;10.16;100.00
39443;BME280;25147;52.142;9.960;2023-10-19T11:30:25;98339.16;;;8.59;100.00
39443;BME280;25147;52.142;9.960;2023-10-19T11:32:57;98488.69;;;9.44;100.00
39443;BME280;25147;52.142;9.960;2023-10-19T11:35:25;98565.59;;;9.78;100.00
39443;BME280;25147;52.142;9.960;2023-10-19T11:37:57;98520.03;;;9.44;100.00
39443;BME280;25147;52.142;9.960;2023-10-19T11:40:26;98485.56;;;9.36;100.00
39443;BME280;25147;52.142;9.960;2023-10-19T11:42:55;98403.66;;;8.76;100.00
39443;BME280;25147;52.142;9.960;2023-10-19T11:45:24;98320.78;;;8.40;100.00
39443;BME280;25147;52.142;9.960;2023-10-19T11:47:52;98360.88;;;8.59;100.00
39443;BME280;25147;52.142;9.960;2023-10-19T11:50:22;98373.22;;;8.76;100.00
39443;BME280;25147;52.142;9.960;2023-10-19T11:52:50;98633.97;;;10.10;100.00
39443;BME280;25147;52.142;9.960;2023-10-19T11:55:34;98298.06;;;8.21;100.00
39443;BME280;25147;52.142;9.960;2023-10-19T11:58:03;98602.84;;;10.04;100.00
39443;BME280;25147;52.142;9.960;2023-10-19T12:00:30;98524.13;;;9.50;100.00
39443;BME280;25147;52.142;9.960;2023-10-19T12:03:04;98429.31;;;9.07;100.00
39443;BME280;25147;52.142;9.960;2023-10-19T12:05:31;98518.47;;;9.61;100.00
39443;BME280;25147;52.142;9.960;2023-10-19T12:08:02;98536.41;;;9.69;100.00
39443;BME280;25147;52.142;9.960;2023-10-19T12:10:29;98487.91;;;9.22;100.00
39443;BME280;25147;52.142;9.960;2023-10-19T12:13:02;98565.22;;;9.67;100.00
39443;BME280;25147;52.142;9.960;2023-10-19T12:15:30;98533.25;;;9.60;100.00
39443;BME280;25147;52.142;9.960;2023-10-19T12:17:58;98606.56;;;9.98;100.00
39443;BME280;25147;52.142;9.960;2023-10-19T12:20:25;98311.69;;;8.28;100.00
39443;BME280;25147;52.142;9.960;2023-10-19T12:22:52;98519.88;;;9.48;100.00
39443;BME280;25147;52.142;9.960;2023-10-19T12:25:19;98305.84;;;8.23;100.00
39443;BME280;25147;52.142;9.960;2023-10-19T12:27:46;98452.69;;;9.10;100.00
39443;BME280;25147;52.142;9.960;2023-10-19T12:30:15;98535.69;;;9.65;100.00
39443;BME280;25147;52.142;9.960;2023-10-19T12:32:45;98584.25;;;9.91;100.00
39443;BME280;25147;52.142;9.960;2023-10-19T12:35:15;98418.41;;;8.97;100.00
39443;BME280;25147;52.142;9.960;2023-10-19T12:37:45;98439.50;;;9.13;100.00
39443;BME280;25147;52.142;9.960;2023-10-19T12:40:16;98581.00;;;10.05;100.00
39443;BME280;25147;52.142;9.960;2023-10-19T12:42:54;98573.03;;;10.08;100.00
39443;BME280;25147;52.142;9.960;2023-10-19T12:45:24;98566.81;;;10.11;100.00
39443;BME280;25147;52.142;9.960;2023-10-19T12:47:51;98369.22;;;8.68;100.00
39443;BME280;25147;52.142;9.960;2023-10-19T12:50:18;98581.78;;;10.07;100.00
39443;BME280;25147;52.142;9.960;2023-10-19T12:52:48;98424.19;;;9.26;100.00
39443;BME280;25147;52.142;9.960;2023-10-19T12:55:15;98531.34;;;9.84;100.00
39443;BME280;25147;52.142;9.960;2023-10-19T12:57:42;98552.50;;;9.99;100.00
39443;BME280;25147;52.142;9.960;2023-10-19T13:00:10;98581.22;;;10.00;100.00
39443;BME280;25147;52.142;9.960;2023-10-19T13:02:52;98572.88;;;10.11;100.00
39443;BME280;25147;52.142;9.960;2023-10-19T13:05:26;98566.88;;;10.09;100.00
39443;BME280;25147;52.142;9.960;2023-10-19T13:07:53;98564.41;;;10.06;100.00
39443;BME280;25147;52.142;9.960;2023-10-19T13:10:27;98518.25;;;9.66;100.00
39443;BME280;25147;52.142;9.960;2023-10-19T13:13:00;98354.81;;;8.59;100.00
39443;BME280;25147;52.142;9.960;2023-10-19T13:15:29;98562.94;;;9.80;100.00